Main page
METAR-TAF:

METAR-TAF

Airports :

Tétouan, Morocco

Sania Ramel Airport

latitude: 35-35N, longitude: 005-20W, elevation: 10 m

Current weather observation

The report was made 28 minutes ago, at 23:00 UTC
Wind 5 kt from the East
Temperature 20°C
Humidity 78%
Pressure 1015 hPa
Visibility: 8000 m
Scattered clouds at a height of 1300 ft
Scattered clouds at a height of 2000 ft

METAR: GMTN 222300Z 08005KT 8000 SCT013 SCT020 20/16 Q1015 NOSIG

Time: 23:28 (23:28 UTC)


TAF: missing

Weather observations and forecasts of more than 4000 airports (METAR and TAF reports).

The available stations are represented by yellow and red dots on the map.

Hover mouse over dot to see the name of the station.

Then click to see weather observations and forecasts.

To change the map : click on the green buttons with a black cross to zoom in, on the green button with a dash to zoom out, or on the green arrows for adjacent maps.


METAR-TAF: